Terminal Aerodrome Forecast
Issued by NWS Mt. Holly, NJ

Home | Current Version | Previous Version | Text Only | Print | Product List | Glossary On
Versions: 1 2 3 4 5 6 7 8 9 10 11 12 13 14 15 16 17 18 19 20
000
FTUS41 KPHI 232339
TAFTTN
TAF
KTTN 232339Z 2400/2424 22011KT P6SM VCSH BKN040
      TEMPO 2401/2405 2SM TSRA OVC015CB
     FM240500 22008KT P6SM OVC090 WS020/23040KT
     FM240800 22007KT 3SM TSRA BKN015CB
     FM241200 30011KT P6SM SCT015 BKN030
     FM241500 30010G20KT P6SM SCT030
     FM241900 28012G22KT P6SM SKC=

USA.gov is the U.S. government's official web portal to all federal, state and local government web resources and services.